createdAt,value
2019-01-19T00:00:07.794Z,10.53
2019-01-19T00:02:50.736Z,9.73
2019-01-19T00:06:11.350Z,8.95
2019-01-19T00:09:11.720Z,9.28
2019-01-19T00:12:09.328Z,7.95
2019-01-19T00:14:58.961Z,8.85
2019-01-19T00:18:12.348Z,8.70
2019-01-19T00:21:17.180Z,8.83
2019-01-19T00:24:42.713Z,9.73
2019-01-19T00:27:40.582Z,8.18
2019-01-19T00:30:27.384Z,8.65
2019-01-19T00:33:50.870Z,8.98
2019-01-19T00:36:45.551Z,8.20
2019-01-19T00:39:55.329Z,7.92
2019-01-19T00:42:36.772Z,8.03
2019-01-19T00:45:45.120Z,7.62
2019-01-19T00:49:20.418Z,7.30
2019-01-19T00:52:26.078Z,8.43
2019-01-19T00:55:43.176Z,7.77
2019-01-19T00:58:18.965Z,9.05
2019-01-19T01:00:54.002Z,9.18
2019-01-19T01:03:49.356Z,9.30
2019-01-19T01:06:55.036Z,9.45
2019-01-19T01:09:52.247Z,9.43
2019-01-19T01:12:49.272Z,9.00
2019-01-19T01:15:48.586Z,9.13
2019-01-19T01:19:14.880Z,9.95
2019-01-19T01:22:07.864Z,10.75
2019-01-19T01:24:54.347Z,9.93
2019-01-19T01:27:52.965Z,10.03
2019-01-19T01:30:50.426Z,10.60
2019-01-19T01:33:45.121Z,9.98
2019-01-19T01:36:39.719Z,10.70
2019-01-19T01:39:32.051Z,10.45
2019-01-19T01:42:29.451Z,9.65
2019-01-19T01:45:34.831Z,11.20
2019-01-19T01:48:29.378Z,11.70
2019-01-19T01:51:19.035Z,11.63
2019-01-19T01:54:19.094Z,11.57
2019-01-19T01:56:48.724Z,12.35
2019-01-19T01:59:51.269Z,11.70
2019-01-19T02:02:32.943Z,12.43
2019-01-19T02:05:47.188Z,12.73
2019-01-19T02:09:01.057Z,12.20
2019-01-19T02:12:04.639Z,12.68
2019-01-19T02:14:50.831Z,13.20
2019-01-19T02:18:23.312Z,12.03
2019-01-19T02:21:26.818Z,11.83
2019-01-19T02:24:48.501Z,11.77
2019-01-19T02:27:51.945Z,11.48
2019-01-19T02:30:57.664Z,11.28
2019-01-19T02:34:05.508Z,11.50
2019-01-19T02:37:17.402Z,11.78
2019-01-19T02:40:02.117Z,10.65
2019-01-19T02:43:03.937Z,13.32
2019-01-19T02:45:49.755Z,16.00
2019-01-19T02:48:56.692Z,15.85
2019-01-19T02:52:10.397Z,14.10
2019-01-19T02:55:13.699Z,15.48
2019-01-19T02:58:20.351Z,13.13
2019-01-19T03:01:19.610Z,12.58
2019-01-19T03:04:10.011Z,11.90
2019-01-19T03:07:28.876Z,11.70
2019-01-19T03:10:13.237Z,11.65
2019-01-19T03:13:23.927Z,11.40
2019-01-19T03:16:18.800Z,12.15
2019-01-19T03:19:07.850Z,11.85
2019-01-19T03:22:03.854Z,12.07
2019-01-19T03:24:57.879Z,12.43
2019-01-19T03:27:56.554Z,13.40
2019-01-19T03:30:55.672Z,13.00
2019-01-19T03:33:51.274Z,12.75
2019-01-19T03:36:55.087Z,12.68
2019-01-19T03:39:43.439Z,13.53
2019-01-19T03:43:09.445Z,12.40
2019-01-19T03:46:16.259Z,15.50
2019-01-19T03:49:24.317Z,14.90
2019-01-19T03:52:28.971Z,14.90
2019-01-19T03:55:34.546Z,13.80
2019-01-19T03:58:18.266Z,11.97
2019-01-19T04:01:30.273Z,12.35
2019-01-19T04:04:36.301Z,12.07
2019-01-19T04:07:39.820Z,12.20
2019-01-19T04:10:38.202Z,11.08
2019-01-19T04:13:28.217Z,11.00
2019-01-19T04:16:12.867Z,10.93
2019-01-19T04:18:58.548Z,11.10
2019-01-19T04:21:42.886Z,11.20
2019-01-19T04:24:19.457Z,10.95
2019-01-19T04:26:52.141Z,12.00
2019-01-19T04:29:21.665Z,10.70
2019-01-19T04:31:51.231Z,10.58
2019-01-19T04:34:20.726Z,11.30
2019-01-19T04:36:50.494Z,10.68
2019-01-19T04:39:19.999Z,10.38
2019-01-19T04:41:49.488Z,11.20
2019-01-19T04:44:18.990Z,10.08
2019-01-19T04:46:48.479Z,10.40
2019-01-19T04:49:17.964Z,10.90
2019-01-19T04:51:47.483Z,11.10
2019-01-19T04:54:16.998Z,10.55
2019-01-19T04:56:46.487Z,10.90
2019-01-19T04:59:15.979Z,10.80
2019-01-19T05:01:45.484Z,10.08
2019-01-19T05:04:15.004Z,11.30
2019-01-19T05:06:44.577Z,10.70
2019-01-19T05:09:14.061Z,10.50
2019-01-19T05:11:43.554Z,11.38
2019-01-19T05:14:13.046Z,10.70
2019-01-19T05:16:42.537Z,11.08
2019-01-19T05:19:12.026Z,11.93
2019-01-19T05:21:41.522Z,13.95
2019-01-19T05:24:11.029Z,14.23
2019-01-19T05:26:40.524Z,13.40
2019-01-19T05:29:11.077Z,13.13
2019-01-19T05:31:40.586Z,12.90
2019-01-19T05:34:10.078Z,13.00
2019-01-19T05:36:39.572Z,12.40
2019-01-19T05:39:09.144Z,12.07
2019-01-19T05:41:38.642Z,11.97
2019-01-19T05:44:08.142Z,12.65
2019-01-19T05:46:37.650Z,12.03
2019-01-19T05:49:07.155Z,11.43
2019-01-19T05:51:36.657Z,12.40
2019-01-19T05:54:06.147Z,12.15
2019-01-19T05:56:35.645Z,11.50
2019-01-19T05:59:05.205Z,11.78
2019-01-19T06:01:34.704Z,11.28
2019-01-19T06:04:04.282Z,11.50
2019-01-19T06:06:33.782Z,12.30
2019-01-19T06:09:05.155Z,12.30
2019-01-19T06:11:34.643Z,11.73
2019-01-19T06:14:04.222Z,12.63
2019-01-19T06:16:33.715Z,10.80
2019-01-19T06:19:03.473Z,11.63
2019-01-19T06:21:36.376Z,11.48
2019-01-19T06:24:05.807Z,11.40
2019-01-19T06:26:35.319Z,10.97
2019-01-19T06:29:04.893Z,11.15
2019-01-19T06:31:34.404Z,11.57
2019-01-19T06:34:03.923Z,11.35
2019-01-19T06:36:33.442Z,11.57
2019-01-19T06:39:02.938Z,11.93
2019-01-19T06:41:33.505Z,11.33
2019-01-19T06:44:02.998Z,11.70
2019-01-19T06:46:32.505Z,11.60
2019-01-19T06:49:02.018Z,12.47
2019-01-19T06:51:31.519Z,13.00
2019-01-19T06:54:01.674Z,12.75
2019-01-19T06:56:31.479Z,12.40
2019-01-19T06:59:00.971Z,13.60
2019-01-19T07:01:30.476Z,13.60
2019-01-19T07:03:59.988Z,12.05
2019-01-19T07:06:29.501Z,12.58
2019-01-19T07:08:59.006Z,12.90
2019-01-19T07:11:29.398Z,12.78
2019-01-19T07:13:59.151Z,11.83
2019-01-19T07:16:28.761Z,12.50
2019-01-19T07:18:58.268Z,13.38
2019-01-19T07:21:27.757Z,12.47
2019-01-19T07:23:57.251Z,11.60
2019-01-19T07:26:26.762Z,11.57
2019-01-19T07:28:56.257Z,11.90
2019-01-19T07:31:25.744Z,12.05
2019-01-19T07:33:55.491Z,13.25
2019-01-19T07:36:24.988Z,13.13
2019-01-19T07:38:54.482Z,12.65
2019-01-19T07:41:23.979Z,12.93
2019-01-19T07:43:53.477Z,13.38
2019-01-19T07:46:23.559Z,12.80
2019-01-19T07:48:53.118Z,16.23
2019-01-19T07:51:22.615Z,17.40
2019-01-19T07:53:52.108Z,18.00
2019-01-19T07:56:21.637Z,18.00
2019-01-19T07:58:52.089Z,16.07
2019-01-19T08:01:21.584Z,13.13
2019-01-19T08:03:51.089Z,11.80
2019-01-19T08:06:20.654Z,11.90
2019-01-19T08:08:50.218Z,11.93
2019-01-19T08:11:20.352Z,11.80
2019-01-19T08:13:50.033Z,12.13
2019-01-19T08:16:19.570Z,13.00
2019-01-19T08:18:49.158Z,12.98
2019-01-19T08:21:18.656Z,12.63
2019-01-19T08:23:48.166Z,10.80
2019-01-19T08:26:17.672Z,10.07
2019-01-19T08:28:47.178Z,8.50
2019-01-19T08:31:16.671Z,15.00
2019-01-19T08:33:46.181Z,16.97
2019-01-19T08:36:16.071Z,10.10
2019-01-19T08:38:45.602Z,9.08
2019-01-19T08:41:15.087Z,9.70
2019-01-19T08:43:51.369Z,7.97
2019-01-19T08:46:20.841Z,7.10
2019-01-19T08:48:50.341Z,7.70
2019-01-19T08:51:19.930Z,8.57
2019-01-19T08:53:49.394Z,7.80
2019-01-19T08:56:18.916Z,7.00
2019-01-19T08:58:48.618Z,7.17
2019-01-19T09:01:18.098Z,8.45
2019-01-19T09:03:47.626Z,7.67
2019-01-19T09:06:17.149Z,7.65
2019-01-19T09:08:46.707Z,8.10
2019-01-19T09:11:16.361Z,7.50
2019-01-19T09:13:46.771Z,7.58
2019-01-19T09:16:21.270Z,6.13
2019-01-19T09:18:50.769Z,7.10
2019-01-19T09:21:20.278Z,7.10
2019-01-19T09:24:01.434Z,6.80
2019-01-19T09:26:31.996Z,6.50
2019-01-19T09:29:01.503Z,6.90
2019-01-19T09:31:30.984Z,6.80
2019-01-19T09:34:00.486Z,7.00
2019-01-19T09:36:30.330Z,7.30
2019-01-19T09:38:59.998Z,7.00
2019-01-19T09:41:29.567Z,6.77
2019-01-19T09:43:59.060Z,7.58
2019-01-19T09:46:28.618Z,6.80
2019-01-19T09:48:58.213Z,7.20
2019-01-19T09:51:27.690Z,6.50
2019-01-19T09:53:57.266Z,6.35
2019-01-19T09:56:26.747Z,6.80
2019-01-19T09:58:56.249Z,6.90
2019-01-19T10:01:25.741Z,6.70
2019-01-19T10:03:55.255Z,6.60
2019-01-19T10:06:24.810Z,6.35
2019-01-19T10:08:54.398Z,6.83
2019-01-19T10:11:23.904Z,7.42
2019-01-19T10:13:53.413Z,6.55
2019-01-19T10:16:22.898Z,5.47
2019-01-19T10:18:52.395Z,5.60
2019-01-19T10:21:21.963Z,5.63
2019-01-19T10:23:51.461Z,5.30
2019-01-19T10:26:20.937Z,5.07
2019-01-19T10:28:51.137Z,4.22
2019-01-19T10:31:20.638Z,4.70
2019-01-19T10:33:50.136Z,34.10
2019-01-19T10:36:19.631Z,40.63
2019-01-19T10:38:49.131Z,14.83
2019-01-19T10:41:18.619Z,8.70
2019-01-19T10:43:49.336Z,4.90
2019-01-19T10:46:18.882Z,5.50
2019-01-19T10:48:48.399Z,4.83
2019-01-19T10:51:17.892Z,5.08
2019-01-19T10:53:47.395Z,4.95
2019-01-19T10:56:16.965Z,5.35
2019-01-19T10:58:46.460Z,4.65
2019-01-19T11:01:15.967Z,4.58
2019-01-19T11:03:45.497Z,5.15
2019-01-19T11:06:15.000Z,4.40
2019-01-19T11:08:44.492Z,4.60
2019-01-19T11:11:13.983Z,3.73
2019-01-19T11:13:43.487Z,3.25
2019-01-19T11:16:12.991Z,3.57
2019-01-19T11:18:42.520Z,3.10
2019-01-19T11:21:12.003Z,3.00
2019-01-19T11:23:41.491Z,2.50
2019-01-19T11:26:10.988Z,2.40
2019-01-19T11:28:40.510Z,2.10
2019-01-19T11:31:09.985Z,2.30
2019-01-19T11:33:39.479Z,2.00
2019-01-19T11:36:09.052Z,2.47
2019-01-19T11:38:38.559Z,2.30
2019-01-19T11:41:08.088Z,2.20
2019-01-19T11:43:37.581Z,2.35
2019-01-19T11:46:07.081Z,2.12
2019-01-19T11:48:36.618Z,2.70
2019-01-19T11:51:06.098Z,2.47
2019-01-19T11:53:35.621Z,2.53
2019-01-19T11:56:11.973Z,2.90
2019-01-19T11:58:36.407Z,2.75
2019-01-19T12:01:07.271Z,2.50
2019-01-19T12:03:36.840Z,2.58
2019-01-19T12:06:06.991Z,2.80
2019-01-19T12:08:36.571Z,2.35
2019-01-19T12:11:06.154Z,2.70
2019-01-19T12:13:35.650Z,2.37
2019-01-19T12:16:05.223Z,2.50
2019-01-19T12:18:34.718Z,2.27
2019-01-19T12:21:04.188Z,2.30
2019-01-19T12:23:33.666Z,2.17
2019-01-19T12:26:03.161Z,2.40
2019-01-19T12:28:32.694Z,2.30
2019-01-19T12:31:02.309Z,2.20
2019-01-19T12:33:31.866Z,2.40
2019-01-19T12:36:01.350Z,2.67
2019-01-19T12:38:30.845Z,1.80
2019-01-19T12:41:00.417Z,2.60
2019-01-19T12:43:29.900Z,3.17
2019-01-19T12:46:05.187Z,3.60
2019-01-19T12:48:34.721Z,2.90
2019-01-19T12:51:06.573Z,2.70
2019-01-19T12:53:36.059Z,2.33
2019-01-19T12:56:05.694Z,2.02
2019-01-19T12:58:35.190Z,2.10
2019-01-19T13:01:05.211Z,2.35
2019-01-19T13:03:34.903Z,2.00
2019-01-19T13:06:32.487Z,1.80
2019-01-19T13:09:12.468Z,2.42
2019-01-19T13:12:14.901Z,2.63
2019-01-19T13:15:26.060Z,2.60
2019-01-19T13:18:10.349Z,2.63
2019-01-19T13:21:18.087Z,2.85
2019-01-19T13:23:59.636Z,2.90
2019-01-19T13:27:05.915Z,3.50
2019-01-19T13:30:27.548Z,3.10
2019-01-19T13:33:34.579Z,3.30
2019-01-19T13:36:46.714Z,3.47
2019-01-19T13:39:54.807Z,3.10
2019-01-19T13:43:01.550Z,4.60
2019-01-19T13:45:54.147Z,3.97
2019-01-19T13:49:10.264Z,3.77
2019-01-19T13:52:02.734Z,3.42
2019-01-19T13:55:02.517Z,3.53
2019-01-19T13:58:06.584Z,3.20
2019-01-19T14:01:28.271Z,2.90
2019-01-19T14:04:20.061Z,2.83
2019-01-19T14:07:43.030Z,3.90
2019-01-19T14:10:42.132Z,4.13
2019-01-19T14:13:52.177Z,3.90
2019-01-19T14:16:47.351Z,4.00
2019-01-19T14:19:58.496Z,3.80
2019-01-19T14:23:17.548Z,3.17
2019-01-19T14:26:14.479Z,3.20
2019-01-19T14:29:23.608Z,2.77
2019-01-19T14:32:27.406Z,3.20
2019-01-19T14:35:21.624Z,3.23
2019-01-19T14:38:31.590Z,3.30
2019-01-19T14:41:14.434Z,2.80
2019-01-19T14:44:09.056Z,2.80
2019-01-19T14:47:08.957Z,4.80
2019-01-19T14:50:14.721Z,4.10
2019-01-19T14:53:27.613Z,4.67
2019-01-19T14:56:35.914Z,4.33
2019-01-19T14:59:15.837Z,4.50
2019-01-19T15:02:17.633Z,4.30
2019-01-19T15:05:34.429Z,4.85
2019-01-19T15:08:30.138Z,11.68
2019-01-19T15:11:43.388Z,11.67
2019-01-19T15:14:54.351Z,9.60
2019-01-19T15:18:13.650Z,7.08
2019-01-19T15:21:07.479Z,5.47
2019-01-19T15:24:05.526Z,6.30
2019-01-19T15:27:11.216Z,6.00
2019-01-19T15:30:15.729Z,6.70
2019-01-19T15:33:28.556Z,7.57
2019-01-19T15:36:14.054Z,7.40
2019-01-19T15:38:58.110Z,7.08
2019-01-19T15:42:03.757Z,5.60
2019-01-19T15:44:56.653Z,5.15
2019-01-19T15:47:58.357Z,5.80
2019-01-19T15:51:15.187Z,8.28
2019-01-19T15:54:00.462Z,8.73
2019-01-19T15:56:57.301Z,8.70
2019-01-19T16:00:02.261Z,7.58
2019-01-19T16:02:57.116Z,6.03
2019-01-19T16:05:50.367Z,5.62
2019-01-19T16:08:43.168Z,6.43
2019-01-19T16:11:49.013Z,5.50
2019-01-19T16:15:15.079Z,5.30
2019-01-19T16:18:02.924Z,5.20
2019-01-19T16:21:11.419Z,5.40
2019-01-19T16:24:07.607Z,6.12
2019-01-19T16:27:31.148Z,6.00
2019-01-19T16:30:54.361Z,6.40
2019-01-19T16:33:37.333Z,6.53
2019-01-19T16:36:50.150Z,6.20
2019-01-19T16:40:09.665Z,7.67
2019-01-19T16:43:08.866Z,6.90
2019-01-19T16:46:29.830Z,5.90
2019-01-19T16:49:26.226Z,6.93
2019-01-19T16:52:32.349Z,5.80
2019-01-19T16:55:51.675Z,6.57
2019-01-19T16:59:04.860Z,6.58
2019-01-19T17:02:33.748Z,5.10
2019-01-19T17:05:36.313Z,5.60
2019-01-19T17:08:25.942Z,6.05
2019-01-19T17:11:12.965Z,5.50
2019-01-19T17:14:19.221Z,6.00
2019-01-19T17:17:16.591Z,6.20
2019-01-19T17:20:13.030Z,5.60
2019-01-19T17:23:11.719Z,6.17
2019-01-19T17:26:18.982Z,6.83
2019-01-19T17:29:29.180Z,6.50
2019-01-19T17:32:12.286Z,5.67
2019-01-19T17:35:25.111Z,6.07
2019-01-19T17:38:09.771Z,6.27
2019-01-19T17:41:34.675Z,10.50
2019-01-19T17:44:30.579Z,9.77
2019-01-19T17:47:25.315Z,9.60
2019-01-19T17:50:21.836Z,16.60
2019-01-19T17:53:24.349Z,15.23
2019-01-19T17:56:32.232Z,7.40
2019-01-19T17:59:36.481Z,7.08
2019-01-19T18:02:37.695Z,6.75
2019-01-19T18:05:41.292Z,6.28
2019-01-19T18:08:27.789Z,8.33
2019-01-19T18:11:33.716Z,11.55
2019-01-19T18:14:44.753Z,11.08
2019-01-19T18:17:43.009Z,11.80
2019-01-19T18:20:36.115Z,11.10
2019-01-19T18:23:40.909Z,11.43
2019-01-19T18:26:33.552Z,9.90
2019-01-19T18:29:45.605Z,9.63
2019-01-19T18:32:30.408Z,10.85
2019-01-19T18:35:43.196Z,9.90
2019-01-19T18:38:47.433Z,10.20
2019-01-19T18:41:43.659Z,11.03
2019-01-19T18:44:52.308Z,10.00
2019-01-19T18:47:33.808Z,9.48
2019-01-19T18:50:46.732Z,10.40
2019-01-19T18:54:07.346Z,9.17
2019-01-19T18:57:13.209Z,9.73
2019-01-19T19:00:24.648Z,10.00
2019-01-19T19:03:21.641Z,10.32
2019-01-19T19:06:15.161Z,10.85
2019-01-19T19:09:22.226Z,9.80
2019-01-19T19:12:11.215Z,9.53
2019-01-19T19:15:31.075Z,9.30
2019-01-19T19:18:42.854Z,8.95
2019-01-19T19:22:06.810Z,9.60
2019-01-19T19:25:21.381Z,9.63
2019-01-19T19:28:47.817Z,8.70
2019-01-19T19:31:39.554Z,8.08
2019-01-19T19:35:01.820Z,8.80
2019-01-19T19:37:56.725Z,9.05
2019-01-19T19:41:03.538Z,9.20
2019-01-19T19:43:55.154Z,9.10
2019-01-19T19:47:13.071Z,12.20
2019-01-19T19:50:18.300Z,24.30
2019-01-19T19:52:48.327Z,30.05
2019-01-19T19:55:16.712Z,19.90
2019-01-19T19:57:46.475Z,16.50
2019-01-19T20:00:16.878Z,10.60
2019-01-19T20:02:46.949Z,10.45
2019-01-19T20:05:17.556Z,9.07
2019-01-19T20:07:47.373Z,8.60
2019-01-19T20:10:17.485Z,9.15
2019-01-19T20:12:47.017Z,9.08
2019-01-19T20:15:17.042Z,9.75
2019-01-19T20:17:46.540Z,9.05
2019-01-19T20:20:16.107Z,10.80
2019-01-19T20:22:45.611Z,10.70
2019-01-19T20:25:15.153Z,10.23
2019-01-19T20:27:44.650Z,10.07
2019-01-19T20:30:15.214Z,9.80
2019-01-19T20:32:44.703Z,10.10
2019-01-19T20:35:14.283Z,9.78
2019-01-19T20:37:44.753Z,10.07
2019-01-19T20:40:14.340Z,11.47
2019-01-19T20:42:43.821Z,11.00
2019-01-19T20:45:13.490Z,12.10
2019-01-19T20:47:43.067Z,12.30
2019-01-19T20:50:12.951Z,12.80
2019-01-19T20:52:42.439Z,13.00
2019-01-19T20:55:11.950Z,13.30
2019-01-19T20:57:41.542Z,12.98
2019-01-19T21:00:14.274Z,13.13
2019-01-19T21:02:43.776Z,14.50
2019-01-19T21:05:13.313Z,12.40
2019-01-19T21:07:42.837Z,12.60
2019-01-19T21:10:12.565Z,13.45
2019-01-19T21:12:42.086Z,13.20
2019-01-19T21:15:12.580Z,13.58
2019-01-19T21:17:42.067Z,14.15
2019-01-19T21:20:12.429Z,13.77
2019-01-19T21:22:41.911Z,13.50
2019-01-19T21:25:12.001Z,13.83
2019-01-19T21:27:42.573Z,13.33
2019-01-19T21:30:12.729Z,14.37
2019-01-19T21:32:43.227Z,14.40
2019-01-19T21:35:12.740Z,12.70
2019-01-19T21:37:42.239Z,13.50
2019-01-19T21:40:11.877Z,11.50
2019-01-19T21:42:41.367Z,13.00
2019-01-19T21:45:14.539Z,12.93
2019-01-19T21:47:44.040Z,12.73
2019-01-19T21:50:13.613Z,13.65
2019-01-19T21:52:43.136Z,12.40
2019-01-19T21:55:12.747Z,12.20
2019-01-19T21:57:42.270Z,14.50
2019-01-19T22:00:14.024Z,13.60
2019-01-19T22:02:43.520Z,12.10
2019-01-19T22:05:13.268Z,11.70
2019-01-19T22:07:42.775Z,12.90
2019-01-19T22:10:14.506Z,13.43
2019-01-19T22:12:44.016Z,14.47
2019-01-19T22:15:17.597Z,13.83
2019-01-19T22:17:47.193Z,13.60
2019-01-19T22:20:17.042Z,13.70
2019-01-19T22:22:46.533Z,13.15
2019-01-19T22:25:16.180Z,12.20
2019-01-19T22:27:49.626Z,13.20
2019-01-19T22:30:21.593Z,14.03
2019-01-19T22:32:55.331Z,12.20
2019-01-19T22:35:27.658Z,12.20
2019-01-19T22:37:57.217Z,13.93
2019-01-19T22:40:26.805Z,13.70
2019-01-19T22:42:58.959Z,13.50
2019-01-19T22:45:28.479Z,14.10
2019-01-19T22:47:57.978Z,13.97
2019-01-19T22:50:27.482Z,14.80
2019-01-19T22:52:56.982Z,14.98
2019-01-19T22:55:26.478Z,13.10
2019-01-19T22:57:55.998Z,14.33
2019-01-19T23:01:01.708Z,14.70
2019-01-19T23:03:33.640Z,14.50
2019-01-19T23:06:03.171Z,15.10
2019-01-19T23:08:32.659Z,14.10
2019-01-19T23:11:02.158Z,15.13
2019-01-19T23:13:31.655Z,16.95
2019-01-19T23:16:01.164Z,16.80
2019-01-19T23:18:30.735Z,16.57
2019-01-19T23:21:00.265Z,17.48
2019-01-19T23:23:30.768Z,16.23
2019-01-19T23:26:01.792Z,16.95
2019-01-19T23:28:31.296Z,16.60
2019-01-19T23:31:00.870Z,15.13
2019-01-19T23:33:30.371Z,16.95
2019-01-19T23:35:59.889Z,16.23
2019-01-19T23:38:29.373Z,15.48
2019-01-19T23:40:58.866Z,15.90
2019-01-19T23:43:28.354Z,15.20
2019-01-19T23:45:58.816Z,14.90
2019-01-19T23:48:28.305Z,15.50
2019-01-19T23:50:57.816Z,15.57
2019-01-19T23:53:27.289Z,14.30
2019-01-19T23:55:56.788Z,14.50
2019-01-19T23:58:26.275Z,15.28
